LECO/LCG METAR and TAF weather

Enter ICAO airport designator
Station Type Date Time Source
LECO METAR 2022/12/04 04:30 UTC NOAA

LECO 040430Z 17005KT 0200 R21/1800D R03/0650D FG NSC 00/00 Q1008 NOSIG


Station Type Date Time Source
LECO Decoded METAR 2022/12/04 04:30 UTC NOAA

La Coruna / Alvedro, Spain (LECO) 43-18N 008-23W 103M
Dec 03, 2022 - 11:30 PM EST / 2022.12.04 0430 UTC
Wind: from the S (170 degrees) at 6 MPH (5 KT):0
Visibility: less than 1 mile:0
Weather: fog
Temperature: 32 F (0 C)
Windchill: 26 F (-3 C):1
Dew Point: 32 F (0 C)
Relative Humidity: 100%
Pressure (altimeter): 29.77 in. Hg (1008 hPa)
ob: LECO 040430Z 17005KT 0200 R21/1800D R03/0650D FG NSC 00/00 Q1008 NOSIG
cycle: 4

Station Type Date Time Source
LECO TAF 2022/12/04 03:27 UTC NOAA

TAF LECO 040200Z 0403/0503 VRB03KT 9999 SCT030 TX11/0415Z TN01/0407Z PROB40
TEMPO 0403/0409 3000 BR BCFG BKN005 PROB30
TEMPO 0403/0409 0350 FG VV001

Example: see airport list